Time;durP1;ratioP1;P1;durP2;ratioP2;P2;SDS_P1;SDS_P2;PMS_P1;PMS_P2;Temp;Humidity;BMP_temperature;BMP_pressure;BME280_temperature;BME280_humidity;BME280_pressure;Samples;Min_cycle;Max_cycle;Signal;HPM_P1;HPM_P2
2023/06/05 00:01:36;;;;;;;11.00;4.88;;;12.60;99.90;;;;;;5043012;28;20056;-52
2023/06/05 00:04:03;;;;;;;8.65;4.75;;;12.50;99.90;;;;;;5042272;28;20075;-57
2023/06/05 00:06:29;;;;;;;8.57;4.80;;;12.50;99.90;;;;;;5042321;28;20049;-56
2023/06/05 00:08:54;;;;;;;7.32;4.50;;;12.40;99.90;;;;;;5042746;28;20048;-47
2023/06/05 00:11:21;;;;;;;6.47;4.47;;;12.40;99.90;;;;;;5043220;28;20052;-60
2023/06/05 00:13:47;;;;;;;7.68;4.88;;;12.40;99.90;;;;;;5042629;28;20033;-54
2023/06/05 00:16:12;;;;;;;10.30;5.30;;;12.30;99.90;;;;;;5024667;28;20044;-60
2023/06/05 00:18:38;;;;;;;11.45;5.70;;;12.30;99.90;;;;;;5041889;28;20595;-52
2023/06/05 00:21:04;;;;;;;9.45;5.75;;;12.30;99.90;;;;;;5042869;28;20040;-55
2023/06/05 00:23:30;;;;;;;8.82;5.70;;;12.30;99.90;;;;;;5024361;28;20049;-59
2023/06/05 00:25:55;;;;;;;9.48;5.30;;;12.30;99.90;;;;;;5024663;28;20036;-54
2023/06/05 00:28:21;;;;;;;8.55;5.50;;;13.20;99.90;;;;;;5042424;28;20055;-59
2023/06/05 00:30:46;;;;;;;9.07;5.50;;;12.40;99.90;;;;;;5024086;28;20496;-54
2023/06/05 00:33:12;;;;;;;9.57;5.65;;;12.30;99.90;;;;;;5042275;28;20570;-56
2023/06/05 00:35:39;;;;;;;9.43;6.25;;;12.30;99.90;;;;;;5042251;28;20053;-58
2023/06/05 00:38:06;;;;;;;8.77;5.80;;;12.20;99.90;;;;;;5042558;28;20135;-56
2023/06/05 00:40:32;;;;;;;11.23;6.35;;;12.20;99.90;;;;;;5041937;28;20060;-57
2023/06/05 00:42:58;;;;;;;9.73;5.97;;;12.20;99.90;;;;;;5041966;28;20056;-53
2023/06/05 00:45:24;;;;;;;11.98;6.55;;;12.20;99.90;;;;;;5042129;28;20049;-59
2023/06/05 00:47:49;;;;;;;10.20;6.38;;;12.20;99.90;;;;;;5041779;28;20037;-58
2023/06/05 00:50:17;;;;;;;11.45;6.32;;;12.20;99.90;;;;;;5041460;28;20045;-52
2023/06/05 00:52:43;;;;;;;12.45;6.22;;;12.20;99.90;;;;;;5023956;28;20110;-60
2023/06/05 00:55:11;;;;;;;9.63;6.47;;;12.20;99.90;;;;;;5041597;28;20188;-55
2023/06/05 00:57:39;;;;;;;9.65;6.18;;;12.20;99.90;;;;;;5042486;28;20088;-59
2023/06/05 01:00:09;;;;;;;8.00;5.88;;;12.20;99.90;;;;;;5024007;28;20048;-56
2023/06/05 01:02:37;;;;;;;8.57;5.97;;;12.20;99.90;;;;;;5041551;28;20758;-59
2023/06/05 01:05:03;;;;;;;10.00;5.75;;;12.20;99.90;;;;;;5040420;28;20108;-57
2023/06/05 01:07:32;;;;;;;12.00;6.13;;;12.10;99.90;;;;;;5023837;28;20502;-59
2023/06/05 01:10:03;;;;;;;11.48;6.72;;;12.10;99.90;;;;;;5041221;28;20053;-59
2023/06/05 01:12:47;;;;;;;10.27;6.80;;;12.10;99.90;;;;;;5041663;28;20048;-50
2023/06/05 01:15:15;;;;;;;10.50;6.00;;;12.10;99.90;;;;;;5041241;28;20037;-60
2023/06/05 01:17:45;;;;;;;11.60;6.20;;;12.00;99.90;;;;;;5041835;28;20295;-50
2023/06/05 01:20:11;;;;;;;11.48;6.93;;;12.00;99.90;;;;;;5023438;28;20041;-55
2023/06/05 01:22:39;;;;;;;10.90;5.85;;;12.00;99.90;;;;;;5041493;28;20037;-49
2023/06/05 01:25:07;;;;;;;9.18;5.70;;;12.00;99.90;;;;;;5023850;28;20467;-58
2023/06/05 01:27:50;;;;;;;11.60;6.32;;;12.00;99.90;;;;;;5041164;28;20040;-55
2023/06/05 01:30:28;;;;;;;12.63;6.70;;;12.00;99.90;;;;;;5023288;28;20044;-61
2023/06/05 01:33:02;;;;;;;10.07;5.88;;;12.00;99.90;;;;;;5024098;28;20053;-53
2023/06/05 01:35:33;;;;;;;11.23;6.13;;;12.00;99.90;;;;;;5040708;28;20041;-57
2023/06/05 01:38:02;;;;;;;8.50;5.85;;;12.10;99.90;;;;;;5041619;28;20387;-60
2023/06/05 01:40:30;;;;;;;11.32;6.55;;;12.00;99.90;;;;;;5040685;28;20379;-55
2023/06/05 01:42:57;;;;;;;10.25;6.20;;;12.00;99.90;;;;;;5041114;28;20088;-60
2023/06/05 01:45:23;;;;;;;9.07;6.05;;;12.90;99.90;;;;;;5041038;28;20048;-58
2023/06/05 01:47:50;;;;;;;12.38;5.93;;;11.90;99.90;;;;;;5041376;28;20045;-58
2023/06/05 01:50:17;;;;;;;10.65;6.35;;;11.90;99.90;;;;;;5040118;28;20108;-52
2023/06/05 01:52:45;;;;;;;11.13;5.85;;;11.90;99.90;;;;;;5041252;28;20041;-50
2023/06/05 01:55:20;;;;;;;9.43;5.82;;;11.90;99.90;;;;;;5041485;28;20102;-55
2023/06/05 01:57:45;;;;;;;7.28;5.25;;;12.00;99.90;;;;;;5040631;28;20048;-55
2023/06/05 02:00:15;;;;;;;8.27;5.80;;;12.00;99.90;;;;;;5041806;28;20462;-60
2023/06/05 02:02:45;;;;;;;9.25;5.60;;;12.00;99.90;;;;;;5040981;28;20060;-53
2023/06/05 02:05:12;;;;;;;10.50;5.07;;;12.00;99.90;;;;;;5044118;28;20047;-58
2023/06/05 02:07:41;;;;;;;9.25;6.00;;;12.00;99.90;;;;;;5044714;28;20049;-54
2023/06/05 02:10:08;;;;;;;10.82;5.90;;;12.00;99.90;;;;;;5045350;28;20069;-57
2023/06/05 02:12:34;;;;;;;10.35;5.57;;;11.90;99.90;;;;;;5044173;28;20328;-57
2023/06/05 02:15:00;;;;;;;13.57;5.90;;;11.80;99.90;;;;;;5044770;28;20041;-52
2023/06/05 02:17:26;;;;;;;9.57;5.50;;;11.80;99.90;;;;;;5044518;28;20333;-53
2023/06/05 02:19:52;;;;;;;8.15;5.63;;;11.80;99.90;;;;;;5043837;28;20041;-56
2023/06/05 02:22:18;;;;;;;8.52;6.00;;;11.70;99.90;;;;;;5044998;28;20399;-55
2023/06/05 02:24:44;;;;;;;12.43;6.10;;;11.70;99.90;;;;;;5045263;28;20049;-59
2023/06/05 02:27:10;;;;;;;7.68;5.32;;;11.70;99.90;;;;;;5045374;28;20098;-61
2023/06/05 02:29:39;;;;;;;12.85;5.90;;;11.70;99.90;;;;;;5044071;28;20050;-53
2023/06/05 02:32:06;;;;;;;9.18;6.18;;;11.70;99.90;;;;;;5044776;28;20087;-59
2023/06/05 02:34:32;;;;;;;9.38;5.70;;;11.80;99.90;;;;;;5043558;28;20049;-56
2023/06/05 02:37:01;;;;;;;9.50;6.00;;;11.70;99.90;;;;;;5044411;28;20499;-60
2023/06/05 02:39:26;;;;;;;9.75;5.38;;;12.10;99.90;;;;;;5044443;28;20286;-59
2023/06/05 02:41:53;;;;;;;11.63;5.80;;;11.70;99.90;;;;;;5044775;28;20598;-52
2023/06/05 02:44:19;;;;;;;8.07;5.55;;;11.70;99.90;;;;;;5043815;28;20053;-55
2023/06/05 02:46:44;;;;;;;8.32;5.43;;;11.60;99.90;;;;;;5045263;28;20098;-57
2023/06/05 02:49:10;;;;;;;9.48;5.70;;;11.60;99.90;;;;;;5043759;28;20396;-57
2023/06/05 02:51:35;;;;;;;10.82;6.05;;;11.60;99.90;;;;;;5043722;28;20439;-49
2023/06/05 02:54:02;;;;;;;8.32;5.65;;;11.60;99.90;;;;;;5044461;28;20417;-59
2023/06/05 02:56:27;;;;;;;8.23;5.25;;;11.50;99.90;;;;;;5044204;28;20175;-52
2023/06/05 02:58:53;;;;;;;9.68;5.63;;;11.70;99.90;;;;;;5044352;28;20123;-59
2023/06/05 03:01:21;;;;;;;10.80;5.65;;;11.50;99.90;;;;;;5043579;28;20072;-57
2023/06/05 03:03:48;;;;;;;8.50;5.97;;;11.50;99.90;;;;;;5043396;28;20060;-53
2023/06/05 03:06:17;;;;;;;9.65;5.78;;;11.40;99.90;;;;;;5044166;28;20467;-58
2023/06/05 03:08:43;;;;;;;11.18;6.28;;;11.30;99.90;;;;;;5043746;28;20045;-60
2023/06/05 03:11:10;;;;;;;10.35;6.45;;;11.20;99.90;;;;;;5044133;28;20067;-55
2023/06/05 03:13:35;;;;;;;9.52;6.25;;;11.30;99.90;;;;;;5043209;28;20136;-61
2023/06/05 03:16:01;;;;;;;8.70;6.15;;;11.10;99.90;;;;;;5042817;28;20120;-56
2023/06/05 03:18:28;;;;;;;10.05;6.45;;;11.00;99.90;;;;;;5042863;28;20377;-54
2023/06/05 03:20:57;;;;;;;9.32;6.38;;;11.00;99.90;;;;;;5043832;28;20537;-60
2023/06/05 03:23:23;;;;;;;10.80;6.60;;;11.00;99.90;;;;;;5043138;28;20048;-55
2023/06/05 03:25:49;;;;;;;9.32;6.45;;;11.00;99.90;;;;;;5043970;28;20451;-60
2023/06/05 03:28:15;;;;;;;9.73;6.30;;;10.90;99.90;;;;;;5044248;28;20357;-54
2023/06/05 03:30:41;;;;;;;9.13;6.07;;;10.90;99.90;;;;;;5043177;28;20110;-55
2023/06/05 03:33:07;;;;;;;10.70;6.43;;;11.20;99.90;;;;;;5042657;28;20435;-50
2023/06/05 03:35:32;;;;;;;9.48;6.60;;;10.80;99.90;;;;;;5043287;28;20527;-52
2023/06/05 03:37:59;;;;;;;8.27;6.15;;;10.90;99.90;;;;;;5043816;28;20059;-55
2023/06/05 03:40:24;;;;;;;10.00;6.50;;;10.90;99.90;;;;;;5043141;28;20075;-55
2023/06/05 03:42:50;;;;;;;11.27;7.07;;;10.90;99.90;;;;;;5043227;28;20045;-52
2023/06/05 03:45:16;;;;;;;9.15;6.38;;;10.80;99.90;;;;;;5043906;28;20133;-60
2023/06/05 03:47:44;;;;;;;9.63;5.97;;;10.90;99.90;;;;;;5042681;28;20236;-48
2023/06/05 03:50:10;;;;;;;9.50;6.25;;;10.90;99.90;;;;;;5043072;28;20037;-57
2023/06/05 03:52:39;;;;;;;8.98;6.15;;;10.90;99.90;;;;;;5043257;28;20056;-56
2023/06/05 03:55:07;;;;;;;9.90;6.32;;;11.00;99.90;;;;;;5025132;28;20044;-58
2023/06/05 03:57:33;;;;;;;9.50;6.25;;;11.00;99.90;;;;;;5042922;28;20053;-57
2023/06/05 03:59:59;;;;;;;11.48;6.35;;;10.20;99.90;;;;;;5043181;28;20033;-58
2023/06/05 04:02:25;;;;;;;9.30;6.30;;;11.10;99.90;;;;;;5043000;28;20409;-54
2023/06/05 04:04:51;;;;;;;9.75;6.55;;;11.20;99.90;;;;;;5041685;28;20052;-54
2023/06/05 04:07:17;;;;;;;11.15;5.90;;;11.20;99.90;;;;;;5043096;28;20074;-58
2023/06/05 04:09:42;;;;;;;8.85;6.10;;;11.30;99.90;;;;;;5042658;28;20093;-55
2023/06/05 04:12:10;;;;;;;9.13;6.07;;;11.30;99.90;;;;;;5042862;28;20041;-58
2023/06/05 04:14:36;;;;;;;8.65;6.32;;;11.30;99.90;;;;;;5024777;28;20048;-57
2023/06/05 04:17:02;;;;;;;12.27;6.70;;;11.30;99.90;;;;;;5043100;28;20146;-59
2023/06/05 04:19:28;;;;;;;10.32;6.20;;;11.40;99.90;;;;;;5041414;28;20037;-54
2023/06/05 04:21:54;;;;;;;8.98;5.93;;;11.50;99.90;;;;;;5042486;28;20268;-60
2023/06/05 04:24:19;;;;;;;9.02;5.97;;;11.50;99.90;;;;;;5043177;28;20037;-59
2023/06/05 04:26:47;;;;;;;8.82;6.47;;;12.50;99.90;;;;;;5041758;28;20182;-54
2023/06/05 04:29:16;;;;;;;10.75;7.22;;;12.10;99.90;;;;;;5042181;28;20067;-57
2023/06/05 04:31:50;;;;;;;12.00;6.80;;;11.70;99.90;;;;;;5042263;28;20276;-57
2023/06/05 04:34:18;;;;;;;11.25;7.47;;;11.90;99.90;;;;;;5041206;28;20033;-53
2023/06/05 04:36:44;;;;;;;13.32;7.40;;;12.00;99.90;;;;;;5042646;28;20049;-58
2023/06/05 04:39:17;;;;;;;11.57;7.45;;;12.00;99.90;;;;;;5042086;28;20526;-53
2023/06/05 04:41:45;;;;;;;8.93;7.63;;;12.20;99.90;;;;;;5041554;28;20178;-56
2023/06/05 04:44:16;;;;;;;11.82;7.50;;;12.20;99.90;;;;;;5042131;28;20301;-60
2023/06/05 04:46:43;;;;;;;11.10;7.43;;;12.30;99.90;;;;;;5042084;28;20041;-53
2023/06/05 04:49:13;;;;;;;9.25;6.82;;;12.30;99.90;;;;;;5041240;28;20170;-58
2023/06/05 04:51:39;;;;;;;6.63;5.60;;;12.40;99.90;;;;;;5041954;28;20131;-59
2023/06/05 04:54:05;;;;;;;7.63;5.40;;;12.40;99.90;;;;;;5041976;28;20124;-58
2023/06/05 04:56:34;;;;;;;7.28;4.95;;;12.30;99.90;;;;;;5041357;28;20552;-54
2023/06/05 04:59:01;;;;;;;9.57;5.53;;;12.40;99.90;;;;;;5042251;28;20048;-57
2023/06/05 05:01:28;;;;;;;7.15;4.80;;;12.50;99.90;;;;;;5041616;28;20528;-59
2023/06/05 05:03:54;;;;;;;7.50;5.30;;;12.60;99.90;;;;;;5040550;28;20059;-60
2023/06/05 05:06:20;;;;;;;6.68;5.00;;;12.60;99.90;;;;;;5041471;28;20064;-52
2023/06/05 05:08:50;;;;;;;7.45;5.20;;;12.70;99.90;;;;;;5041612;28;20037;-57
2023/06/05 05:11:16;;;;;;;7.07;5.13;;;12.80;99.90;;;;;;5041201;28;20111;-52
2023/06/05 05:13:42;;;;;;;5.57;4.35;;;12.80;99.90;;;;;;5042057;28;20041;-59
2023/06/05 05:16:09;;;;;;;5.05;4.07;;;13.30;99.90;;;;;;5041388;28;20047;-50
2023/06/05 05:18:36;;;;;;;6.35;4.20;;;13.20;99.90;;;;;;5023233;28;20040;-60
2023/06/05 05:21:02;;;;;;;6.97;4.07;;;13.40;99.90;;;;;;5040979;28;20037;-54
2023/06/05 05:23:28;;;;;;;5.25;3.70;;;13.60;99.90;;;;;;5041197;28;20125;-58
2023/06/05 05:25:54;;;;;;;6.20;3.78;;;13.60;99.90;;;;;;5042236;28;20140;-61
2023/06/05 05:28:19;;;;;;;5.32;3.25;;;13.60;99.90;;;;;;5040917;28;20087;-52
2023/06/05 05:30:45;;;;;;;4.65;3.45;;;13.70;99.90;;;;;;5041626;28;20056;-60
2023/06/05 05:33:11;;;;;;;5.35;3.47;;;13.80;99.90;;;;;;5040525;28;20048;-51
2023/06/05 05:35:36;;;;;;;5.70;3.70;;;13.90;99.90;;;;;;5040682;28;20482;-49
2023/06/05 05:38:02;;;;;;;4.55;3.60;;;13.80;99.90;;;;;;5022985;28;20040;-58
2023/06/05 05:40:27;;;;;;;6.47;4.15;;;13.70;99.90;;;;;;5040841;28;20373;-51
2023/06/05 05:42:53;;;;;;;4.47;3.38;;;13.50;99.90;;;;;;5041708;28;20131;-57
2023/06/05 05:45:18;;;;;;;6.05;4.20;;;13.60;99.90;;;;;;5040727;28;20040;-54
2023/06/05 05:47:45;;;;;;;5.53;3.75;;;13.80;99.90;;;;;;5040116;28;20055;-59
2023/06/05 05:50:10;;;;;;;6.25;3.90;;;14.20;99.90;;;;;;5023544;28;20041;-50
2023/06/05 05:52:36;;;;;;;5.45;3.63;;;14.80;99.90;;;;;;5022284;28;20467;-57
2023/06/05 05:55:03;;;;;;;4.13;3.10;;;15.30;99.90;;;;;;5041302;28;20053;-59
2023/06/05 05:57:29;;;;;;;3.88;2.90;;;15.60;99.90;;;;;;5041066;28;20045;-55
2023/06/05 05:59:55;;;;;;;5.20;3.17;;;16.00;99.90;;;;;;5041039;28;20051;-58
2023/06/05 06:02:21;;;;;;;4.32;3.10;;;16.10;99.90;;;;;;5040899;28;20084;-61
2023/06/05 06:04:48;;;;;;;4.82;2.80;;;16.20;99.90;;;;;;5040555;28;20139;-55
2023/06/05 06:07:14;;;;;;;5.07;2.80;;;16.40;99.90;;;;;;5040742;28;20124;-59
2023/06/05 06:09:40;;;;;;;3.72;2.88;;;16.80;99.90;;;;;;5040802;28;20131;-53
2023/06/05 06:12:07;;;;;;;3.55;2.60;;;17.00;99.90;;;;;;5041006;28;20080;-60
2023/06/05 06:14:33;;;;;;;3.20;2.60;;;17.20;99.90;;;;;;5041011;28;20103;-55
2023/06/05 06:16:59;;;;;;;6.10;3.15;;;17.50;99.60;;;;;;5040387;28;20049;-59
2023/06/05 06:19:26;;;;;;;4.93;2.88;;;17.70;99.00;;;;;;5040597;28;20411;-61
2023/06/05 06:21:51;;;;;;;4.40;2.60;;;17.90;98.50;;;;;;5022929;28;20446;-50
2023/06/05 06:24:20;;;;;;;6.50;2.97;;;18.00;98.30;;;;;;5040808;28;20037;-52
2023/06/05 06:26:46;;;;;;;3.95;2.90;;;18.00;97.80;;;;;;5040607;28;20045;-53
2023/06/05 06:29:14;;;;;;;3.72;2.63;;;17.60;97.50;;;;;;5022829;28;20289;-59
2023/06/05 06:31:40;;;;;;;4.00;2.88;;;17.90;97.40;;;;;;5040763;28;20094;-55
2023/06/05 06:34:06;;;;;;;5.07;3.10;;;17.80;97.40;;;;;;5039691;28;20660;-50
2023/06/05 06:36:32;;;;;;;4.18;2.83;;;17.70;97.60;;;;;;5040781;28;20092;-57
2023/06/05 06:38:57;;;;;;;4.55;3.00;;;17.50;97.70;;;;;;5040825;28;20072;-55
2023/06/05 06:41:23;;;;;;;4.40;2.60;;;17.50;98.10;;;;;;5040596;28;20248;-58
2023/06/05 06:43:48;;;;;;;6.80;2.78;;;17.60;97.90;;;;;;5040650;28;20064;-54
2023/06/05 06:46:14;;;;;;;4.63;2.80;;;17.60;97.90;;;;;;5040853;28;20773;-59
2023/06/05 06:48:40;;;;;;;4.43;2.83;;;17.60;98.10;;;;;;5039388;28;20048;-49
2023/06/05 06:51:05;;;;;;;4.32;2.65;;;17.80;97.60;;;;;;5043587;28;20482;-57
2023/06/05 06:53:31;;;;;;;4.20;2.70;;;17.70;97.80;;;;;;5044329;28;20445;-59
2023/06/05 06:55:57;;;;;;;3.75;2.53;;;17.80;97.80;;;;;;5026616;28;20045;-56
2023/06/05 06:58:23;;;;;;;5.30;2.60;;;17.90;97.70;;;;;;5043632;28;20041;-58
2023/06/05 07:00:49;;;;;;;4.18;2.60;;;18.00;97.30;;;;;;5044362;28;20464;-57
2023/06/05 07:03:15;;;;;;;4.43;2.97;;;18.30;97.30;;;;;;5025173;28;20140;-55
2023/06/05 07:05:41;;;;;;;5.35;2.90;;;18.30;97.10;;;;;;5043627;28;20064;-60
2023/06/05 07:08:07;;;;;;;4.65;2.63;;;18.10;97.40;;;;;;5044423;28;20045;-55
2023/06/05 07:10:32;;;;;;;4.40;2.70;;;18.20;97.50;;;;;;5026397;28;20056;-55
2023/06/05 07:12:58;;;;;;;5.18;2.90;;;18.40;97.40;;;;;;5044688;28;20048;-47
2023/06/05 07:15:23;;;;;;;5.78;2.70;;;18.70;96.80;;;;;;5043562;28;20052;-56
2023/06/05 07:17:49;;;;;;;4.43;3.28;;;18.80;96.70;;;;;;5043069;28;20091;-59
2023/06/05 07:20:14;;;;;;;4.78;2.95;;;18.50;96.60;;;;;;5044012;28;20041;-57
2023/06/05 07:22:45;;;;;;;3.85;2.50;;;18.40;96.90;;;;;;5024958;28;20227;-50
2023/06/05 07:25:13;;;;;;;4.38;2.50;;;18.50;96.70;;;;;;5043788;28;20051;-54
2023/06/05 07:27:40;;;;;;;3.25;2.15;;;18.60;96.90;;;;;;5043871;28;20404;-60
2023/06/05 07:30:07;;;;;;;5.68;2.22;;;18.70;96.70;;;;;;5043022;28;20029;-54
2023/06/05 07:32:32;;;;;;;4.40;2.35;;;18.70;96.30;;;;;;5042789;28;20133;-60
2023/06/05 07:34:58;;;;;;;4.72;2.50;;;18.70;96.50;;;;;;5043845;28;20124;-56
2023/06/05 07:37:23;;;;;;;3.70;2.25;;;18.70;96.40;;;;;;5042884;28;20063;-55
2023/06/05 07:39:51;;;;;;;3.60;2.63;;;18.80;96.40;;;;;;5043727;28;20049;-53
2023/06/05 07:42:16;;;;;;;3.75;2.60;;;18.90;96.20;;;;;;5043155;28;20045;-52
2023/06/05 07:44:42;;;;;;;3.90;2.40;;;18.90;96.00;;;;;;5043483;28;20052;-61
2023/06/05 07:47:07;;;;;;;4.80;2.90;;;18.90;96.20;;;;;;5042397;28;20144;-56
2023/06/05 07:49:33;;;;;;;3.28;2.40;;;18.90;96.20;;;;;;5042957;28;20037;-58
2023/06/05 07:52:00;;;;;;;5.88;2.40;;;18.90;96.30;;;;;;5044091;28;20086;-58
2023/06/05 07:54:26;;;;;;;3.70;2.00;;;19.10;96.30;;;;;;5042333;28;20076;-55
2023/06/05 07:56:52;;;;;;;4.75;2.40;;;19.40;96.10;;;;;;5043012;28;20475;-56
2023/06/05 07:59:24;;;;;;;5.13;2.70;;;19.20;95.90;;;;;;5008957;28;20440;-58
2023/06/05 08:01:49;;;;;;;3.47;2.47;;;19.10;96.00;;;;;;5041403;28;20061;-50
2023/06/05 08:04:15;;;;;;;4.53;2.58;;;19.20;96.00;;;;;;5042505;28;20045;-54
2023/06/05 08:06:41;;;;;;;3.63;2.42;;;19.20;96.10;;;;;;5042806;28;20119;-48
2023/06/05 08:09:10;;;;;;;4.18;2.40;;;19.30;95.90;;;;;;5024478;28;20763;-59
2023/06/05 08:11:37;;;;;;;5.60;3.05;;;19.10;95.80;;;;;;5042983;28;20710;-56
2023/06/05 08:14:05;;;;;;;5.30;2.95;;;19.20;96.30;;;;;;5043133;28;20044;-56
2023/06/05 08:16:31;;;;;;;4.40;2.58;;;19.20;96.10;;;;;;5042249;28;20055;-50
2023/06/05 08:18:57;;;;;;;6.00;2.50;;;19.50;96.10;;;;;;5024211;28;20033;-57
2023/06/05 08:21:22;;;;;;;4.30;2.63;;;19.40;95.90;;;;;;5042639;28;20106;-58
2023/06/05 08:23:48;;;;;;;6.75;2.80;;;19.50;96.00;;;;;;5042966;28;20049;-61
2023/06/05 08:26:13;;;;;;;3.80;2.50;;;19.40;95.80;;;;;;5024619;28;20549;-55
2023/06/05 08:28:40;;;;;;;3.50;2.20;;;19.40;95.60;;;;;;5042378;28;20383;-56
2023/06/05 08:31:07;;;;;;;4.38;2.72;;;19.30;96.10;;;;;;5042655;28;20514;-50
2023/06/05 08:33:34;;;;;;;7.97;2.28;;;19.30;96.10;;;;;;5041678;28;20439;-61
2023/06/05 08:36:00;;;;;;;6.82;2.70;;;19.40;95.90;;;;;;5042931;28;20045;-58
2023/06/05 08:38:25;;;;;;;4.75;2.53;;;19.50;95.70;;;;;;5041892;28;20347;-54
2023/06/05 08:40:59;;;;;;;4.88;2.80;;;19.50;95.50;;;;;;5041878;28;20059;-59
2023/06/05 08:43:25;;;;;;;3.80;2.83;;;19.50;94.90;;;;;;5042189;28;20123;-61
2023/06/05 08:45:52;;;;;;;4.25;2.97;;;19.50;95.60;;;;;;5042362;28;20041;-47
2023/06/05 08:48:20;;;;;;;7.75;2.70;;;19.50;95.60;;;;;;5040984;28;20064;-50
2023/06/05 08:50:47;;;;;;;7.13;2.90;;;19.70;95.30;;;;;;5024321;28;20510;-52
2023/06/05 08:53:16;;;;;;;4.10;2.95;;;19.80;95.40;;;;;;5041931;28;20037;-54
2023/06/05 08:55:44;;;;;;;4.25;2.90;;;19.90;95.30;;;;;;5041297;28;20045;-54
2023/06/05 08:58:12;;;;;;;4.03;3.00;;;20.10;95.40;;;;;;5042241;28;20041;-59
2023/06/05 09:00:38;;;;;;;7.25;2.80;;;20.30;95.50;;;;;;5042112;28;20049;-56
2023/06/05 09:03:03;;;;;;;5.78;2.90;;;20.50;95.10;;;;;;5040818;28;20049;-51
2023/06/05 09:05:29;;;;;;;5.70;2.80;;;20.60;95.10;;;;;;5041621;28;20049;-61
2023/06/05 09:07:56;;;;;;;4.50;2.90;;;20.70;94.90;;;;;;5041453;28;20048;-54
2023/06/05 09:10:28;;;;;;;5.05;3.03;;;20.80;94.40;;;;;;5041973;28;20177;-57
2023/06/05 09:12:55;;;;;;;6.13;3.47;;;20.80;94.30;;;;;;5023469;28;20357;-60
2023/06/05 09:15:26;;;;;;;5.07;3.30;;;20.80;94.20;;;;;;5041923;28;20033;-58
2023/06/05 09:18:15;;;;;;;4.50;3.35;;;20.80;94.30;;;;;;5040634;28;20478;-50
2023/06/05 09:20:48;;;;;;;6.22;3.15;;;20.80;93.90;;;;;;5041541;28;20043;-60
2023/06/05 09:23:27;;;;;;;4.80;2.90;;;20.90;94.50;;;;;;5040981;28;20219;-61
2023/06/05 09:25:56;;;;;;;3.45;2.40;;;21.10;93.70;;;;;;5041652;28;20041;-60
2023/06/05 09:28:22;;;;;;;5.30;2.80;;;21.50;94.20;;;;;;5040995;28;20044;-55
2023/06/05 09:30:59;;;;;;;6.93;2.83;;;21.70;93.80;;;;;;5023493;28;20041;-61
2023/06/05 09:33:27;;;;;;;3.80;2.60;;;21.90;93.50;;;;;;5041045;28;20456;-60
2023/06/05 09:36:11;;;;;;;5.03;2.63;;;22.00;93.40;;;;;;5041064;28;20049;-55
2023/06/05 09:38:38;;;;;;;;;;;22.00;92.60;;;;;;5042261;28;20053;-58
2023/06/05 09:41:08;;;;;;;4.85;2.30;;;22.00;91.70;;;;;;5041882;28;19927;-59
2023/06/05 09:43:36;;;;;;;6.38;2.88;;;22.00;92.80;;;;;;5041163;28;20082;-53
2023/06/05 09:46:15;;;;;;;4.25;2.45;;;22.10;93.00;;;;;;5041674;28;20717;-60
2023/06/05 09:48:45;;;;;;;3.72;2.35;;;22.10;92.10;;;;;;5040097;28;20052;-58
2023/06/05 09:51:13;;;;;;;4.18;2.53;;;22.20;92.70;;;;;;5041266;28;20135;-58
2023/06/05 09:53:45;;;;;;;4.03;2.40;;;22.10;92.60;;;;;;5041407;28;20327;-54
2023/06/05 09:56:16;;;;;;;7.32;2.50;;;22.10;92.60;;;;;;5040641;28;20118;-53
2023/06/05 09:58:50;;;;;;;3.28;2.50;;;22.20;92.30;;;;;;5041422;28;20044;-55
2023/06/05 10:01:22;;;;;;;4.82;2.55;;;22.20;92.90;;;;;;5041492;28;20119;-62
2023/06/05 10:03:55;;;;;;;4.20;2.72;;;22.20;92.60;;;;;;5039861;28;20088;-50
2023/06/05 10:06:23;;;;;;;4.57;2.65;;;22.30;92.90;;;;;;5040689;28;20045;-54
2023/06/05 10:08:52;;;;;;;4.55;2.58;;;22.30;93.10;;;;;;5040627;28;20091;-52
2023/06/05 10:11:20;;;;;;;3.25;2.40;;;22.50;93.50;;;;;;5040923;28;20231;-56
2023/06/05 10:13:48;;;;;;;3.88;2.38;;;22.70;92.90;;;;;;5041195;28;20041;-59
2023/06/05 10:16:16;;;;;;;2.95;2.22;;;22.90;92.90;;;;;;5040326;28;20229;-59
2023/06/05 10:18:41;;;;;;;5.07;2.72;;;23.00;92.70;;;;;;5040323;28;20037;-50
2023/06/05 10:21:07;;;;;;;4.28;2.25;;;23.20;92.70;;;;;;5041319;28;20045;-56
2023/06/05 10:23:35;;;;;;;3.70;2.60;;;23.20;92.50;;;;;;5040892;28;20381;-59
2023/06/05 10:26:12;;;;;;;3.30;2.42;;;23.20;92.40;;;;;;5044014;28;20322;-53
2023/06/05 10:29:13;;;;;;;3.42;2.47;;;23.30;91.70;;;;;;5045063;28;20418;-54
2023/06/05 10:31:53;;;;;;;5.72;3.10;;;23.10;91.70;;;;;;5044956;28;20048;-56
2023/06/05 10:34:18;;;;;;;4.68;2.90;;;23.00;91.80;;;;;;5043877;28;20224;-56
2023/06/05 10:37:13;;;;;;;7.45;2.35;;;22.80;92.50;;;;;;5044860;28;20048;-60
2023/06/05 10:39:39;;;;;;;4.53;2.40;;;22.70;91.70;;;;;;5044691;28;20041;-61
2023/06/05 10:42:05;;;;;;;3.10;1.88;;;22.70;92.60;;;;;;5044273;28;20261;-56
2023/06/05 10:44:43;;;;;;;4.63;2.70;;;22.70;92.80;;;;;;5044800;28;20388;-59
2023/06/05 10:47:31;;;;;;;3.55;2.40;;;22.80;91.70;;;;;;5044153;28;20045;-59
2023/06/05 10:50:15;;;;;;;3.72;2.30;;;22.70;91.80;;;;;;5044507;28;20069;-60
2023/06/05 10:52:41;;;;;;;3.40;2.45;;;22.80;92.20;;;;;;5044549;28;20065;-54
2023/06/05 10:55:08;;;;;;;5.97;2.28;;;22.80;92.70;;;;;;5044772;28;20045;-57
2023/06/05 10:58:01;;;;;;;3.10;2.20;;;22.80;92.60;;;;;;5043609;28;20246;-55
2023/06/05 11:00:30;;;;;;;3.95;2.40;;;22.70;92.30;;;;;;5044176;28;20041;-58
2023/06/05 11:02:56;;;;;;;4.03;2.45;;;22.50;92.70;;;;;;5043137;28;20045;-59
2023/06/05 11:05:23;;;;;;;4.88;2.33;;;22.70;92.50;;;;;;5043561;28;20045;-53
2023/06/05 11:08:15;;;;;;;6.13;2.42;;;22.90;92.20;;;;;;5044253;28;20106;-59
2023/06/05 11:11:09;;;;;;;6.35;2.50;;;22.90;91.80;;;;;;5044562;28;20049;-59
2023/06/05 11:13:56;;;;;;;4.47;2.42;;;23.10;92.00;;;;;;5044033;28;20471;-56
2023/06/05 11:16:29;;;;;;;2.92;2.08;;;23.30;91.70;;;;;;5044165;28;20047;-61
2023/06/05 11:19:15;;;;;;;3.60;2.30;;;23.50;91.80;;;;;;5043255;28;20111;-61
2023/06/05 11:22:09;;;;;;;6.50;2.55;;;23.50;91.50;;;;;;5043631;28;20045;-57
2023/06/05 11:24:38;;;;;;;4.60;2.90;;;23.30;91.80;;;;;;5043899;28;20056;-60
2023/06/05 11:27:05;;;;;;;5.50;2.25;;;23.30;91.90;;;;;;5042926;28;20096;-56
2023/06/05 11:29:32;;;;;;;3.83;2.55;;;23.50;92.00;;;;;;5043676;28;20029;-61
2023/06/05 11:31:58;;;;;;;4.32;2.60;;;23.50;92.10;;;;;;5042845;28;20045;-53
2023/06/05 11:34:23;;;;;;;5.38;3.10;;;23.40;92.30;;;;;;5043480;28;20534;-58
2023/06/05 11:36:49;;;;;;;5.13;2.58;;;23.20;92.30;;;;;;5043096;28;20060;-60
2023/06/05 11:39:15;;;;;;;4.45;2.45;;;23.00;92.50;;;;;;5043538;28;20513;-54
2023/06/05 11:41:48;;;;;;;6.10;2.75;;;23.10;92.50;;;;;;5044012;28;20045;-58
2023/06/05 11:44:15;;;;;;;2.97;2.20;;;23.20;92.40;;;;;;5043765;28;20044;-61
2023/06/05 11:46:43;;;;;;;4.22;2.38;;;23.40;92.20;;;;;;5042941;28;20076;-55
2023/06/05 11:49:43;;;;;;;3.70;2.30;;;23.30;92.40;;;;;;5043774;28;20241;-58
2023/06/05 11:52:18;;;;;;;3.92;2.40;;;23.50;91.90;;;;;;4942389;29;20087;-54
2023/06/05 11:54:53;;;;;;;5.05;2.40;;;23.50;91.70;;;;;;5028171;28;20056;-56
2023/06/05 11:57:19;;;;;;;3.78;2.78;;;23.40;92.70;;;;;;5042945;28;20500;-50
2023/06/05 11:59:45;;;;;;;4.50;2.47;;;23.30;92.70;;;;;;5043279;28;20294;-61
2023/06/05 12:02:10;;;;;;;3.72;2.60;;;23.10;92.40;;;;;;5024081;28;20053;-57
2023/06/05 12:04:40;;;;;;;3.80;2.53;;;23.00;92.60;;;;;;5042819;28;20381;-55
2023/06/05 12:07:06;;;;;;;6.53;3.05;;;22.90;92.80;;;;;;5042895;28;20155;-57
2023/06/05 12:09:33;;;;;;;4.50;3.08;;;23.10;92.50;;;;;;5042533;28;20356;-59
2023/06/05 12:12:17;;;;;;;5.68;2.72;;;23.10;92.50;;;;;;5025487;28;20041;-59
2023/06/05 12:14:42;;;;;;;6.05;2.80;;;23.10;92.30;;;;;;5042490;28;20041;-57
2023/06/05 12:17:09;;;;;;;4.15;2.70;;;23.20;92.20;;;;;;5042459;28;20512;-60
2023/06/05 12:19:35;;;;;;;5.00;2.40;;;23.30;92.20;;;;;;5042678;28;20056;-53
2023/06/05 12:22:06;;;;;;;3.92;2.63;;;23.40;92.40;;;;;;5024715;28;20447;-58
2023/06/05 12:24:33;;;;;;;5.35;3.00;;;23.40;92.30;;;;;;5042844;28;20118;-55
2023/06/05 12:27:00;;;;;;;6.75;3.40;;;23.30;92.20;;;;;;5042812;28;20053;-51
2023/06/05 12:29:31;;;;;;;5.90;3.13;;;23.30;92.20;;;;;;5042488;28;20052;-58
2023/06/05 12:31:58;;;;;;;6.15;3.80;;;23.10;92.10;;;;;;5041842;28;20490;-52
2023/06/05 12:34:46;;;;;;;6.43;3.42;;;22.90;92.10;;;;;;5042656;28;20076;-61
2023/06/05 12:37:25;;;;;;;5.88;3.38;;;22.80;91.90;;;;;;5042112;28;20431;-59
2023/06/05 12:39:51;;;;;;;5.72;3.00;;;22.80;92.30;;;;;;5042177;28;20043;-61
2023/06/05 12:42:16;;;;;;;5.13;3.55;;;22.80;92.90;;;;;;5041828;28;20045;-55
2023/06/05 12:44:42;;;;;;;6.15;3.47;;;22.70;92.90;;;;;;5042135;28;20178;-59
2023/06/05 12:47:08;;;;;;;5.65;3.47;;;22.60;93.20;;;;;;5041073;28;20041;-58
2023/06/05 12:49:33;;;;;;;8.25;3.13;;;22.50;93.20;;;;;;5041891;28;20583;-57
2023/06/05 12:52:01;;;;;;;6.10;3.45;;;22.50;93.20;;;;;;5041798;28;20049;-59